createdAt,value
2022-08-02T00:00:46.191Z,99.90
2022-08-02T00:03:14.454Z,99.90
2022-08-02T00:05:43.341Z,99.90
2022-08-02T00:08:21.657Z,99.90
2022-08-02T00:10:51.796Z,99.90
2022-08-02T00:13:20.086Z,99.90
2022-08-02T00:15:49.680Z,99.90
2022-08-02T00:18:17.969Z,99.90
2022-08-02T00:20:46.130Z,99.90
2022-08-02T00:23:14.420Z,99.90
2022-08-02T00:25:54.939Z,99.90
2022-08-02T00:28:27.573Z,99.90
2022-08-02T00:30:59.278Z,99.90
2022-08-02T00:34:27.403Z,99.90
2022-08-02T00:36:16.307Z,99.90
2022-08-02T00:38:44.655Z,99.90
2022-08-02T00:41:15.133Z,99.90
2022-08-02T00:43:43.691Z,99.90
2022-08-02T00:46:13.360Z,99.90
2022-08-02T00:48:43.181Z,99.90
2022-08-02T00:51:11.758Z,99.90
2022-08-02T00:53:40.574Z,99.90
2022-08-02T00:56:08.838Z,99.90
2022-08-02T00:58:37.649Z,99.90
2022-08-02T01:01:06.083Z,99.90
2022-08-02T01:03:35.669Z,99.90
2022-08-02T01:06:11.665Z,99.90
2022-08-02T01:08:40.207Z,99.90
2022-08-02T01:11:08.966Z,99.90
2022-08-02T01:13:37.756Z,99.90
2022-08-02T01:16:14.323Z,99.90
2022-08-02T01:18:48.973Z,99.90
2022-08-02T01:21:36.867Z,99.90
2022-08-02T01:24:25.777Z,99.90
2022-08-02T01:27:01.499Z,99.90
2022-08-02T01:29:35.504Z,99.90
2022-08-02T01:32:09.048Z,99.90
2022-08-02T01:34:41.365Z,99.90
2022-08-02T01:37:19.197Z,99.90
2022-08-02T01:39:50.518Z,99.90
2022-08-02T01:42:20.496Z,99.90
2022-08-02T01:44:52.342Z,99.90
2022-08-02T01:47:25.604Z,99.90
2022-08-02T01:49:58.375Z,99.90
2022-08-02T01:52:30.499Z,99.90
2022-08-02T01:55:02.573Z,99.90
2022-08-02T01:57:35.001Z,99.90
2022-08-02T02:00:12.855Z,99.90
2022-08-02T02:02:44.556Z,99.90
2022-08-02T02:05:16.956Z,99.90
2022-08-02T02:07:47.729Z,99.90
2022-08-02T02:10:17.722Z,99.90
2022-08-02T02:12:51.105Z,99.90
2022-08-02T02:15:21.838Z,99.90
2022-08-02T02:18:12.367Z,99.90
2022-08-02T02:20:42.393Z,99.90
2022-08-02T02:23:10.975Z,99.90
2022-08-02T02:25:46.803Z,99.90
2022-08-02T02:28:22.145Z,99.90
2022-08-02T02:30:56.545Z,99.90
2022-08-02T02:33:29.343Z,99.90
2022-08-02T02:35:59.974Z,99.90
2022-08-02T02:38:32.428Z,99.90
2022-08-02T02:41:03.209Z,99.90
2022-08-02T02:43:33.579Z,99.90
2022-08-02T02:46:06.211Z,99.90
2022-08-02T02:48:36.174Z,99.90
2022-08-02T02:51:06.206Z,99.90
2022-08-02T02:54:33.349Z,99.90
2022-08-02T02:56:32.213Z,99.90
2022-08-02T02:59:01.269Z,99.90
2022-08-02T03:01:55.118Z,99.90
2022-08-02T03:04:21.462Z,99.90
2022-08-02T03:06:49.855Z,99.90
2022-08-02T03:09:18.086Z,99.90
2022-08-02T03:11:47.021Z,99.90
2022-08-02T03:14:16.132Z,99.90
2022-08-02T03:16:47.267Z,99.90
2022-08-02T03:19:16.128Z,99.90
2022-08-02T03:21:44.873Z,99.90
2022-08-02T03:24:13.717Z,99.90
2022-08-02T03:26:42.378Z,99.90
2022-08-02T03:29:11.025Z,99.90
2022-08-02T03:31:41.657Z,99.90
2022-08-02T03:34:11.517Z,99.90
2022-08-02T03:36:43.061Z,99.90
2022-08-02T03:39:14.000Z,99.90
2022-08-02T03:41:43.326Z,99.90
2022-08-02T03:44:13.154Z,99.90
2022-08-02T03:46:42.876Z,99.90
2022-08-02T03:49:12.927Z,99.90
2022-08-02T03:51:41.294Z,99.90
2022-08-02T03:54:09.658Z,99.90
2022-08-02T03:56:37.959Z,99.90
2022-08-02T03:59:10.681Z,99.90
2022-08-02T04:01:39.230Z,99.90
2022-08-02T04:04:08.231Z,99.90
2022-08-02T04:06:40.139Z,99.90
2022-08-02T04:09:10.173Z,99.90
2022-08-02T04:11:38.330Z,99.90
2022-08-02T04:14:10.420Z,99.90
2022-08-02T04:16:43.462Z,99.90
2022-08-02T04:19:15.448Z,99.90
2022-08-02T04:21:51.849Z,99.90
2022-08-02T04:24:24.980Z,99.90
2022-08-02T04:26:54.979Z,99.90
2022-08-02T04:29:27.155Z,99.90
2022-08-02T04:31:55.953Z,99.90
2022-08-02T04:34:24.488Z,99.90
2022-08-02T04:36:54.183Z,99.90
2022-08-02T04:39:22.454Z,99.90
2022-08-02T04:41:53.397Z,99.90
2022-08-02T04:44:25.434Z,99.90
2022-08-02T04:46:54.695Z,99.90
2022-08-02T04:49:22.965Z,99.90
2022-08-02T04:51:51.194Z,99.90
2022-08-02T04:54:20.792Z,99.90
2022-08-02T04:56:49.066Z,99.90
2022-08-02T04:59:17.208Z,99.90
2022-08-02T05:01:45.597Z,99.90
2022-08-02T05:04:13.745Z,99.90
2022-08-02T05:06:41.980Z,99.90
2022-08-02T05:09:10.135Z,99.90
2022-08-02T05:11:39.711Z,99.90
2022-08-02T05:14:07.949Z,99.90
2022-08-02T05:16:36.050Z,99.90
2022-08-02T05:19:04.833Z,99.90
2022-08-02T05:21:33.003Z,99.90
2022-08-02T05:24:01.199Z,99.90
2022-08-02T05:26:29.458Z,99.90
2022-08-02T05:28:59.317Z,99.90
2022-08-02T05:31:27.557Z,99.90
2022-08-02T05:33:55.743Z,99.90
2022-08-02T05:36:24.264Z,99.90
2022-08-02T05:38:53.151Z,99.40
2022-08-02T05:41:28.063Z,99.90
2022-08-02T05:43:56.239Z,99.90
2022-08-02T05:46:25.808Z,99.90
2022-08-02T05:48:54.058Z,99.90
2022-08-02T05:51:27.238Z,98.30
2022-08-02T05:54:04.429Z,98.10
2022-08-02T05:56:36.387Z,96.30
2022-08-02T05:59:06.848Z,96.00
2022-08-02T06:01:40.108Z,92.00
2022-08-02T06:04:09.789Z,91.50
2022-08-02T06:06:38.933Z,91.50
2022-08-02T06:09:11.680Z,94.10
2022-08-02T06:12:01.643Z,90.80
2022-08-02T06:14:32.832Z,88.60
2022-08-02T06:17:04.821Z,89.70
2022-08-02T06:19:46.932Z,91.20
2022-08-02T06:22:41.685Z,89.60
2022-08-02T06:25:11.565Z,85.40
2022-08-02T06:27:59.980Z,83.70
2022-08-02T06:30:28.966Z,81.00
2022-08-02T06:32:58.935Z,79.90
2022-08-02T06:35:34.970Z,79.70
2022-08-02T06:38:04.200Z,74.30
2022-08-02T06:40:34.308Z,74.80
2022-08-02T06:43:12.914Z,74.50
2022-08-02T06:45:41.581Z,78.30
2022-08-02T06:48:12.009Z,74.10
2022-08-02T06:50:42.153Z,77.50
2022-08-02T06:53:11.705Z,66.90
2022-08-02T06:55:43.431Z,70.10
2022-08-02T06:58:13.821Z,71.10
2022-08-02T07:00:43.068Z,71.20
2022-08-02T07:03:12.861Z,69.40
2022-08-02T07:05:42.005Z,67.90
2022-08-02T07:08:10.179Z,65.90
2022-08-02T07:10:38.422Z,65.50
2022-08-02T07:13:07.103Z,63.40
2022-08-02T07:15:35.390Z,63.80
2022-08-02T07:18:03.705Z,61.00
2022-08-02T07:20:33.595Z,62.00
2022-08-02T07:23:01.800Z,60.70
2022-08-02T07:26:04.110Z,63.00
2022-08-02T07:28:23.825Z,62.00
2022-08-02T07:30:55.523Z,62.90
2022-08-02T07:33:37.357Z,60.80
2022-08-02T07:36:09.802Z,59.50
2022-08-02T07:38:45.484Z,60.30
2022-08-02T07:41:13.903Z,60.60
2022-08-02T07:43:42.029Z,59.40
2022-08-02T07:46:10.263Z,57.40
2022-08-02T07:48:38.851Z,56.40
2022-08-02T07:51:08.426Z,57.80
2022-08-02T07:53:51.190Z,55.50
2022-08-02T07:56:24.773Z,57.00
2022-08-02T07:58:53.098Z,56.10
2022-08-02T08:01:21.393Z,53.50
2022-08-02T08:03:49.610Z,54.40
2022-08-02T08:06:19.179Z,51.10
2022-08-02T08:08:56.943Z,49.80
2022-08-02T08:11:25.628Z,51.90
2022-08-02T08:13:55.102Z,50.60
2022-08-02T08:16:23.341Z,48.80
2022-08-02T08:18:51.535Z,49.30
2022-08-02T08:21:21.143Z,50.00
2022-08-02T08:23:49.371Z,49.90
2022-08-02T08:26:17.864Z,51.40
2022-08-02T08:28:46.064Z,53.00
2022-08-02T08:31:14.622Z,50.70
2022-08-02T08:33:42.876Z,52.80
2022-08-02T08:36:11.171Z,52.00
2022-08-02T08:38:40.850Z,52.60
2022-08-02T08:41:09.052Z,52.20
2022-08-02T08:43:38.366Z,52.90
2022-08-02T08:46:07.642Z,50.80
2022-08-02T08:48:44.536Z,49.10
2022-08-02T08:51:19.839Z,48.80
2022-08-02T08:53:51.028Z,49.10
2022-08-02T08:56:19.911Z,49.10
2022-08-02T08:58:48.514Z,48.40
2022-08-02T09:01:17.654Z,48.60
2022-08-02T09:03:46.464Z,47.40
2022-08-02T09:06:14.690Z,45.20
2022-08-02T09:08:42.988Z,47.30
2022-08-02T09:11:17.141Z,47.50
2022-08-02T09:13:51.975Z,47.20
2022-08-02T09:16:30.611Z,48.00
2022-08-02T09:18:59.512Z,46.10
2022-08-02T09:21:38.012Z,46.50
2022-08-02T09:24:17.850Z,48.10
2022-08-02T09:26:48.508Z,47.60
2022-08-02T09:29:18.261Z,45.30
2022-08-02T09:31:50.776Z,45.80
2022-08-02T09:34:19.881Z,45.50
2022-08-02T09:36:48.988Z,45.00
2022-08-02T09:39:23.802Z,45.40
2022-08-02T09:41:53.463Z,44.70
2022-08-02T09:44:21.634Z,44.80
2022-08-02T09:46:49.869Z,45.20
2022-08-02T09:49:19.517Z,47.20
2022-08-02T09:51:51.829Z,46.10
2022-08-02T09:54:21.716Z,45.50
2022-08-02T09:56:51.367Z,45.90
2022-08-02T09:59:24.620Z,46.30
2022-08-02T10:02:01.430Z,47.10
2022-08-02T10:04:34.067Z,46.20
2022-08-02T10:07:04.778Z,46.60
2022-08-02T10:09:33.765Z,47.50
2022-08-02T10:12:08.529Z,46.10
2022-08-02T10:14:38.972Z,46.10
2022-08-02T10:17:08.667Z,45.10
2022-08-02T10:20:00.850Z,45.90
2022-08-02T10:22:26.376Z,48.10
2022-08-02T10:24:55.540Z,48.70
2022-08-02T10:27:26.176Z,48.80
2022-08-02T10:29:58.959Z,46.90
2022-08-02T10:32:32.416Z,46.10
2022-08-02T10:35:19.671Z,46.50
2022-08-02T10:37:55.502Z,46.10
2022-08-02T10:40:24.415Z,43.70
2022-08-02T10:42:53.872Z,44.80
2022-08-02T10:45:24.130Z,45.20
2022-08-02T10:48:00.544Z,44.90
2022-08-02T10:50:56.902Z,42.90
2022-08-02T10:53:30.125Z,42.70
2022-08-02T10:55:59.572Z,41.80
2022-08-02T10:58:30.258Z,41.90
2022-08-02T11:01:05.268Z,42.90
2022-08-02T11:03:42.302Z,42.60
2022-08-02T11:06:24.711Z,43.60
2022-08-02T11:09:32.924Z,42.00
2022-08-02T11:12:04.687Z,44.00
2022-08-02T11:14:35.220Z,44.50
2022-08-02T11:17:15.344Z,44.70
2022-08-02T11:20:18.711Z,46.70
2022-08-02T11:22:48.447Z,46.90
2022-08-02T11:26:00.861Z,46.90
2022-08-02T11:28:24.830Z,47.40
2022-08-02T11:30:58.856Z,48.90
2022-08-02T11:33:34.023Z,48.90
2022-08-02T11:36:03.416Z,50.00
2022-08-02T11:38:31.731Z,52.10
2022-08-02T11:41:00.151Z,50.20
2022-08-02T11:43:35.247Z,49.20
2022-08-02T11:46:05.697Z,44.30
2022-08-02T11:48:37.548Z,45.90
2022-08-02T11:51:07.441Z,44.40
2022-08-02T11:53:47.458Z,44.50
2022-08-02T11:56:21.735Z,43.70
2022-08-02T11:59:07.362Z,43.20
2022-08-02T12:01:45.122Z,44.50
2022-08-02T12:04:22.868Z,44.00
2022-08-02T12:07:02.152Z,46.50
2022-08-02T12:09:36.947Z,45.50
2022-08-02T12:12:09.103Z,45.50
2022-08-02T12:14:44.508Z,44.60
2022-08-02T12:17:30.159Z,42.50
2022-08-02T12:19:59.841Z,42.60
2022-08-02T12:22:29.023Z,42.50
2022-08-02T12:24:58.595Z,45.50
2022-08-02T12:27:31.716Z,47.10
2022-08-02T12:30:03.444Z,49.60
2022-08-02T12:32:31.722Z,50.20
2022-08-02T12:35:10.598Z,48.50
2022-08-02T12:37:40.126Z,50.70
2022-08-02T12:40:25.745Z,52.30
2022-08-02T12:42:58.516Z,50.40
2022-08-02T12:45:36.563Z,51.10
2022-08-02T12:48:10.711Z,50.60
2022-08-02T12:50:40.750Z,51.30
2022-08-02T12:53:10.843Z,48.50
2022-08-02T12:56:02.482Z,50.00
2022-08-02T12:58:31.953Z,48.90
2022-08-02T13:01:02.581Z,47.60
2022-08-02T13:04:10.120Z,49.20
2022-08-02T13:09:17.607Z,48.10
2022-08-02T13:11:46.200Z,46.90
2022-08-02T13:14:15.522Z,45.30
2022-08-02T13:16:45.969Z,47.30
2022-08-02T13:19:15.609Z,45.80
2022-08-02T13:22:01.952Z,47.60
2022-08-02T13:24:40.759Z,49.10
2022-08-02T13:27:20.865Z,50.00
2022-08-02T13:29:49.840Z,48.20
2022-08-02T13:32:18.143Z,48.80
2022-08-02T13:34:46.607Z,49.40
2022-08-02T13:37:16.494Z,51.90
2022-08-02T13:40:05.489Z,54.40
2022-08-02T13:42:33.239Z,51.90
2022-08-02T13:45:11.852Z,48.50
2022-08-02T13:48:04.244Z,46.90
2022-08-02T13:50:30.534Z,46.40
2022-08-02T13:53:00.077Z,46.90
2022-08-02T13:55:28.300Z,45.80
2022-08-02T13:57:56.600Z,46.10
2022-08-02T14:00:34.962Z,44.80
2022-08-02T14:03:06.145Z,44.10
2022-08-02T14:05:39.382Z,43.80
2022-08-02T14:08:18.452Z,46.70
2022-08-02T14:10:47.822Z,44.10
2022-08-02T14:13:16.057Z,46.40
2022-08-02T14:15:44.801Z,45.00
2022-08-02T14:18:14.788Z,46.60
2022-08-02T14:20:43.377Z,45.50
2022-08-02T14:23:11.613Z,45.20
2022-08-02T14:25:41.922Z,45.20
2022-08-02T14:28:10.365Z,45.80
2022-08-02T14:30:38.721Z,44.50
2022-08-02T14:33:07.051Z,43.20
2022-08-02T14:35:35.518Z,44.20
2022-08-02T14:38:03.745Z,47.50
2022-08-02T14:40:32.329Z,47.30
2022-08-02T14:43:02.615Z,47.30
2022-08-02T14:45:36.653Z,47.70
2022-08-02T14:48:12.955Z,47.50
2022-08-02T14:50:41.216Z,49.30
2022-08-02T14:53:12.717Z,46.90
2022-08-02T14:55:42.552Z,46.20
2022-08-02T14:58:12.600Z,44.90
2022-08-02T15:00:42.732Z,45.70
2022-08-02T15:03:12.825Z,44.70
2022-08-02T15:05:41.624Z,46.00
2022-08-02T15:08:11.109Z,45.20
2022-08-02T15:10:45.437Z,46.30
2022-08-02T15:13:15.048Z,44.60
2022-08-02T15:15:43.830Z,45.70
2022-08-02T15:18:13.141Z,46.20
2022-08-02T15:20:45.380Z,45.50
2022-08-02T15:23:34.795Z,45.10
2022-08-02T15:26:06.527Z,43.10
2022-08-02T15:28:37.027Z,45.70
2022-08-02T15:31:05.298Z,46.20
2022-08-02T15:33:33.510Z,46.00
2022-08-02T15:36:01.662Z,45.50
2022-08-02T15:38:29.954Z,47.50
2022-08-02T15:40:58.101Z,48.00
2022-08-02T15:43:26.312Z,47.70
2022-08-02T15:45:55.954Z,50.60
2022-08-02T15:48:24.249Z,51.40
2022-08-02T15:50:52.441Z,50.40
2022-08-02T15:53:20.638Z,48.60
2022-08-02T15:56:05.128Z,47.30
2022-08-02T15:58:44.081Z,46.70
2022-08-02T16:01:14.122Z,48.10
2022-08-02T16:03:42.321Z,48.60
2022-08-02T16:06:10.532Z,48.90
2022-08-02T16:08:38.712Z,50.10
2022-08-02T16:11:22.283Z,49.20
2022-08-02T16:13:59.040Z,50.60
2022-08-02T16:16:31.930Z,50.10
2022-08-02T16:19:47.695Z,51.70
2022-08-02T16:21:50.678Z,52.10
2022-08-02T16:24:18.939Z,55.40
2022-08-02T16:26:47.203Z,55.20
2022-08-02T16:29:19.194Z,55.20
2022-08-02T16:31:49.353Z,55.90
2022-08-02T16:34:18.143Z,55.50
2022-08-02T16:36:46.614Z,56.10
2022-08-02T16:39:15.067Z,56.10
2022-08-02T16:41:50.301Z,56.00
2022-08-02T16:44:26.906Z,56.00
2022-08-02T16:47:01.358Z,55.30
2022-08-02T16:50:05.395Z,56.90
2022-08-02T16:52:19.588Z,57.50
2022-08-02T16:54:49.770Z,60.40
2022-08-02T16:57:19.861Z,61.30
2022-08-02T16:59:57.875Z,60.30
2022-08-02T17:02:28.398Z,65.20
2022-08-02T17:04:56.943Z,65.20
2022-08-02T17:08:16.266Z,66.60
2022-08-02T17:10:13.725Z,66.00
2022-08-02T17:12:47.053Z,65.70
2022-08-02T17:16:01.054Z,63.60
2022-08-02T17:18:09.634Z,64.30
2022-08-02T17:20:38.108Z,62.70
2022-08-02T17:23:08.883Z,64.30
2022-08-02T17:25:44.740Z,61.70
2022-08-02T17:28:21.042Z,65.50
2022-08-02T17:30:59.775Z,66.20
2022-08-02T17:33:30.442Z,68.90
2022-08-02T17:36:00.386Z,67.20
2022-08-02T17:38:28.825Z,68.70
2022-08-02T17:40:57.578Z,67.30
2022-08-02T17:43:29.495Z,69.80
2022-08-02T17:46:00.469Z,67.30
2022-08-02T17:48:54.888Z,67.50
2022-08-02T17:52:48.609Z,69.20
2022-08-02T17:54:29.564Z,70.50
2022-08-02T17:56:58.570Z,68.20
2022-08-02T17:59:31.198Z,69.40
2022-08-02T18:02:11.345Z,69.50
2022-08-02T18:04:41.015Z,71.20
2022-08-02T18:07:11.278Z,72.90
2022-08-02T18:09:44.964Z,76.40
2022-08-02T18:12:15.339Z,78.40
2022-08-02T18:14:49.352Z,78.10
2022-08-02T18:17:19.069Z,79.50
2022-08-02T18:19:55.433Z,81.10
2022-08-02T18:22:29.519Z,83.60
2022-08-02T18:24:57.855Z,85.00
2022-08-02T18:27:26.071Z,85.00
2022-08-02T18:34:00.267Z,85.90
2022-08-02T18:35:33.922Z,86.40
2022-08-02T18:38:04.063Z,88.20
2022-08-02T18:40:39.247Z,91.00
2022-08-02T18:43:07.837Z,92.10
2022-08-02T18:46:04.672Z,92.20
2022-08-02T18:48:25.925Z,93.30
2022-08-02T18:50:59.701Z,94.10
2022-08-02T18:53:41.202Z,94.50
2022-08-02T18:56:19.969Z,95.20
2022-08-02T18:58:55.108Z,97.20
2022-08-02T19:01:31.966Z,98.50
2022-08-02T19:04:01.946Z,98.40
2022-08-02T19:06:32.076Z,99.00
2022-08-02T19:09:05.605Z,99.60
2022-08-02T19:11:41.079Z,99.90
2022-08-02T19:14:09.557Z,99.90
2022-08-02T19:16:38.266Z,99.90
2022-08-02T19:19:06.979Z,99.90
2022-08-02T19:22:18.557Z,99.90
2022-08-02T19:24:25.098Z,99.90
2022-08-02T19:26:54.616Z,99.90
2022-08-02T19:29:25.070Z,99.90
2022-08-02T19:32:40.289Z,99.90
2022-08-02T19:35:01.096Z,99.90
2022-08-02T19:37:31.476Z,99.90
2022-08-02T19:40:07.942Z,99.90
2022-08-02T19:45:49.389Z,99.90
2022-08-02T19:48:15.653Z,99.90
2022-08-02T19:50:48.974Z,99.90
2022-08-02T19:53:19.277Z,99.90
2022-08-02T19:56:01.434Z,99.90
2022-08-02T19:58:32.551Z,99.90
2022-08-02T20:01:01.292Z,99.90
2022-08-02T20:03:51.865Z,99.90
2022-08-02T20:06:18.641Z,99.90
2022-08-02T20:08:53.292Z,99.90
2022-08-02T20:11:27.250Z,99.90
2022-08-02T20:13:55.489Z,99.90
2022-08-02T20:16:28.325Z,99.90
2022-08-02T20:19:01.567Z,99.90
2022-08-02T20:21:36.577Z,99.90
2022-08-02T20:24:10.157Z,99.90
2022-08-02T20:26:47.195Z,99.90
2022-08-02T20:29:42.496Z,99.90
2022-08-02T20:32:05.618Z,99.90
2022-08-02T20:34:38.419Z,99.90
2022-08-02T20:38:00.891Z,99.90
2022-08-02T20:39:56.522Z,99.90
2022-08-02T20:42:24.881Z,99.90
2022-08-02T20:44:54.988Z,99.90
2022-08-02T20:47:28.484Z,99.90
2022-08-02T20:50:30.451Z,99.90
2022-08-02T20:53:00.145Z,99.90
2022-08-02T20:55:31.193Z,99.90
2022-08-02T20:58:02.078Z,99.90
2022-08-02T21:00:31.781Z,99.90
2022-08-02T21:03:00.519Z,99.90
2022-08-02T21:05:55.140Z,99.90
2022-08-02T21:08:20.390Z,99.90
2022-08-02T21:10:53.263Z,99.90
2022-08-02T21:13:26.083Z,99.90
2022-08-02T21:15:55.801Z,99.90
2022-08-02T21:18:40.317Z,99.90
2022-08-02T21:21:10.027Z,99.90
2022-08-02T21:23:38.561Z,99.90
2022-08-02T21:26:19.742Z,99.90
2022-08-02T21:29:07.186Z,99.90
2022-08-02T21:31:36.084Z,99.90
2022-08-02T21:34:21.806Z,99.90
2022-08-02T21:36:51.215Z,99.90
2022-08-02T21:39:20.442Z,99.90
2022-08-02T21:41:50.349Z,99.90
2022-08-02T21:44:19.701Z,99.90
2022-08-02T21:46:49.153Z,99.90
2022-08-02T21:49:18.762Z,99.90
2022-08-02T21:51:49.327Z,99.90
2022-08-02T21:54:21.188Z,99.90
2022-08-02T21:56:52.937Z,99.90
2022-08-02T21:59:25.719Z,99.90
2022-08-02T22:02:11.071Z,99.90
2022-08-02T22:04:41.267Z,99.90
2022-08-02T22:07:16.391Z,99.90
2022-08-02T22:09:46.032Z,99.90
2022-08-02T22:12:18.229Z,99.90
2022-08-02T22:14:54.156Z,99.90
2022-08-02T22:17:46.797Z,99.90
2022-08-02T22:20:14.508Z,99.90
2022-08-02T22:22:43.894Z,99.90
2022-08-02T22:25:27.340Z,99.90
2022-08-02T22:28:38.435Z,99.90
2022-08-02T22:34:01.059Z,99.90
2022-08-02T22:36:31.266Z,99.90
2022-08-02T22:38:59.835Z,99.90
2022-08-02T22:42:01.611Z,99.90
2022-08-02T22:47:14.894Z,99.90
2022-08-02T22:49:54.346Z,99.90
2022-08-02T22:52:24.399Z,99.90
2022-08-02T22:54:52.641Z,99.90
2022-08-02T22:57:30.801Z,99.90
2022-08-02T22:58:44.381Z,86.60
2022-08-02T22:59:04.977Z,99.90
2022-08-02T22:59:07.626Z,99.90
2022-08-02T22:59:09.786Z,99.90
2022-08-02T23:00:01.424Z,99.90
2022-08-02T23:02:30.032Z,99.90
2022-08-02T23:04:58.442Z,99.90
2022-08-02T23:07:26.660Z,99.90
2022-08-02T23:09:54.908Z,99.90
2022-08-02T23:12:23.122Z,99.90
2022-08-02T23:14:52.417Z,99.90
2022-08-02T23:17:39.661Z,99.90
2022-08-02T23:20:09.913Z,99.90
2022-08-02T23:22:38.724Z,99.90
2022-08-02T23:25:08.528Z,99.90
2022-08-02T23:27:36.838Z,99.90
2022-08-02T23:30:08.164Z,99.90
2022-08-02T23:32:39.907Z,99.90
2022-08-02T23:35:09.554Z,99.90
2022-08-02T23:37:59.161Z,99.90
2022-08-02T23:40:38.906Z,99.90
2022-08-02T23:43:15.002Z,99.90
2022-08-02T23:45:45.354Z,99.90
2022-08-02T23:48:15.187Z,99.90
2022-08-02T23:50:43.404Z,99.90
2022-08-02T23:53:11.663Z,99.90
2022-08-02T23:55:39.873Z,99.90
2022-08-02T23:58:09.153Z,99.90
